Time;durP1;ratioP1;P1;durP2;ratioP2;P2;SDS_P1;SDS_P2;PMS_P1;PMS_P2;Temp;Humidity;BMP_temperature;BMP_pressure;BME280_temperature;BME280_humidity;BME280_pressure;Samples;Min_cycle;Max_cycle;Signal;HPM_P1;HPM_P2
2023/01/19 00:00:09;;;;;;;4.67;2.93;;;2.60;99.90;;;;;;5033110;28;20480;-74
2023/01/19 00:02:38;;;;;;;3.33;3.13;;;2.60;99.90;;;;;;5032880;28;20952;-73
2023/01/19 00:05:05;;;;;;;2.27;2.07;;;2.50;99.90;;;;;;5034020;28;20968;-74
2023/01/19 00:07:34;;;;;;;5.57;3.20;;;2.60;99.90;;;;;;5037499;28;20469;-73
2023/01/19 00:10:01;;;;;;;6.03;3.50;;;2.50;99.90;;;;;;5033237;28;20530;-73
2023/01/19 00:12:31;;;;;;;3.70;3.33;;;2.60;99.90;;;;;;5032523;28;20519;-74
2023/01/19 00:15:00;;;;;;;4.00;3.70;;;2.60;99.90;;;;;;5032827;28;20480;-72
2023/01/19 00:17:27;;;;;;;5.20;3.13;;;2.70;99.90;;;;;;5033128;28;20483;-74
2023/01/19 00:19:54;;;;;;;5.13;2.27;;;2.80;99.90;;;;;;5032382;28;20484;-73
2023/01/19 00:22:21;;;;;;;3.17;2.87;;;2.80;99.90;;;;;;5032335;28;20455;-73
2023/01/19 00:24:50;;;;;;;3.27;2.93;;;2.80;99.90;;;;;;5032161;28;20548;-73
2023/01/19 00:27:17;;;;;;;6.10;2.77;;;2.90;99.90;;;;;;5032453;28;20505;-73
2023/01/19 00:29:44;;;;;;;4.50;3.83;;;2.80;99.90;;;;;;5032014;28;20979;-74
2023/01/19 00:32:10;;;;;;;4.73;2.60;;;2.80;99.90;;;;;;5032267;28;20459;-73
2023/01/19 00:34:38;;;;;;;3.90;2.67;;;2.80;99.90;;;;;;4997466;28;20535;-73
2023/01/19 00:37:05;;;;;;;6.20;4.00;;;2.80;99.90;;;;;;4997362;28;20449;-73
2023/01/19 00:39:32;;;;;;;5.60;3.53;;;2.70;99.90;;;;;;5032181;28;20480;-73
2023/01/19 00:44:45;;;;;;;5.67;2.80;;;2.60;99.90;;;;;;5038569;28;20464;-74
2023/01/19 00:47:12;;;;;;;4.63;3.10;;;2.60;99.90;;;;;;5034749;28;20526;-73
2023/01/19 00:49:39;;;;;;;15.80;3.97;;;2.70;99.90;;;;;;5032298;28;20820;-74
2023/01/19 00:52:06;;;;;;;3.47;2.20;;;2.80;99.90;;;;;;5032259;28;20924;-74
2023/01/19 00:54:33;;;;;;;3.43;3.13;;;2.90;99.90;;;;;;5032100;28;20524;-74
2023/01/19 00:57:03;;;;;;;2.70;2.10;;;2.90;99.90;;;;;;5031911;28;20510;-74
2023/01/19 00:59:30;;;;;;;6.73;2.77;;;3.00;99.90;;;;;;5035900;28;20480;-74
2023/01/19 01:01:58;;;;;;;5.27;3.40;;;2.90;99.90;;;;;;5033660;28;20611;-74
2023/01/19 01:04:24;;;;;;;4.60;2.50;;;2.90;99.90;;;;;;5032156;28;20494;-71
2023/01/19 01:06:51;;;;;;;5.83;3.93;;;2.80;99.90;;;;;;5032695;28;20556;-74
2023/01/19 01:09:19;;;;;;;2.50;2.30;;;2.80;99.90;;;;;;5031996;28;20522;-74
2023/01/19 01:11:46;;;;;;;2.70;2.50;;;2.90;99.90;;;;;;5032171;28;20444;-74
2023/01/19 01:14:14;;;;;;;4.30;3.67;;;2.90;99.90;;;;;;4997198;28;20416;-74
2023/01/19 01:16:41;;;;;;;3.97;2.73;;;2.90;99.90;;;;;;5031620;28;20419;-72
2023/01/19 01:19:08;;;;;;;5.60;5.07;;;3.00;99.90;;;;;;5031674;28;20529;-72
2023/01/19 01:21:36;;;;;;;3.50;3.20;;;3.00;99.90;;;;;;5032306;28;20435;-74
2023/01/19 01:24:03;;;;;;;2.90;2.30;;;3.00;99.90;;;;;;5038050;28;20807;-74
2023/01/19 01:26:30;;;;;;;5.73;3.33;;;3.00;99.90;;;;;;5033668;28;20474;-74
2023/01/19 01:28:56;;;;;;;3.43;2.50;;;3.00;99.90;;;;;;5031806;28;20504;-72
2023/01/19 01:31:25;;;;;;;3.60;3.30;;;3.10;99.90;;;;;;5031501;28;20932;-72
2023/01/19 01:33:52;;;;;;;4.77;4.07;;;3.10;99.90;;;;;;5031823;28;20443;-72
2023/01/19 01:36:19;;;;;;;2.63;2.23;;;3.20;99.90;;;;;;5031276;28;20419;-72
2023/01/19 01:38:46;;;;;;;7.93;3.83;;;3.20;99.90;;;;;;5031221;28;20520;-72
2023/01/19 01:41:17;;;;;;;3.60;3.30;;;3.20;99.90;;;;;;5031889;28;20502;-72
2023/01/19 01:43:49;;;;;;;7.63;4.30;;;3.20;99.90;;;;;;5031413;28;20441;-73
2023/01/19 01:46:18;;;;;;;3.20;2.07;;;3.20;99.90;;;;;;4996471;28;20469;-73
2023/01/19 01:48:52;;;;;;;6.73;3.40;;;3.20;99.90;;;;;;5031290;28;20480;-73
2023/01/19 01:51:24;;;;;;;5.57;2.50;;;3.20;99.90;;;;;;5031260;28;20797;-73
2023/01/19 01:54:01;;;;;;;3.60;2.40;;;3.10;99.90;;;;;;5031219;28;20761;-72
2023/01/19 01:56:34;;;;;;;5.60;4.20;;;3.10;99.90;;;;;;5030802;28;20429;-73
2023/01/19 01:59:05;;;;;;;5.37;2.60;;;3.00;99.90;;;;;;5030925;28;20575;-73
2023/01/19 02:04:18;;;;;;;3.00;2.40;;;3.10;99.90;;;;;;5037897;28;20384;-71
2023/01/19 02:15:05;;;;;;;5.77;3.90;;;3.10;99.90;;;;;;5034553;28;20395;-73
2023/01/19 02:17:34;;;;;;;12.70;2.43;;;3.10;99.90;;;;;;5036419;28;20561;-74
2023/01/19 02:20:02;;;;;;;2.60;2.40;;;3.00;99.90;;;;;;5037455;28;20457;-72
2023/01/19 02:22:42;;;;;;;5.17;2.87;;;3.10;99.90;;;;;;5034463;28;20850;-73
2023/01/19 02:25:10;;;;;;;4.63;4.17;;;3.10;99.90;;;;;;5034102;28;20888;-72
2023/01/19 02:27:38;;;;;;;3.93;3.57;;;3.00;99.90;;;;;;5034469;28;20440;-73
2023/01/19 02:30:06;;;;;;;5.23;4.27;;;3.00;99.90;;;;;;5034137;28;20443;-72
2023/01/19 02:32:33;;;;;;;9.10;3.43;;;3.00;99.90;;;;;;5033965;28;20515;-72
2023/01/19 02:35:01;;;;;;;6.50;3.47;;;3.00;99.90;;;;;;5034254;28;20455;-72
2023/01/19 02:37:31;;;;;;;3.50;2.80;;;3.00;99.90;;;;;;5033944;28;21034;-72
2023/01/19 02:40:01;;;;;;;3.30;2.90;;;3.10;99.90;;;;;;5033904;28;20945;-72
2023/01/19 02:42:34;;;;;;;5.67;3.40;;;3.10;99.90;;;;;;5038934;28;20408;-72
2023/01/19 02:45:05;;;;;;;6.70;3.17;;;3.10;99.90;;;;;;5036001;28;20408;-72
2023/01/19 02:47:38;;;;;;;5.70;3.23;;;3.10;99.90;;;;;;5034209;28;20443;-72
2023/01/19 02:50:26;;;;;;;3.03;2.83;;;3.10;99.90;;;;;;5034505;28;20764;-72
2023/01/19 02:52:59;;;;;;;8.47;3.90;;;3.00;99.90;;;;;;5033630;28;20543;-72
2023/01/19 02:55:29;;;;;;;8.10;3.50;;;3.00;99.90;;;;;;5032862;28;20433;-72
2023/01/19 02:58:03;;;;;;;3.63;2.47;;;3.00;99.90;;;;;;5033302;28;20455;-72
2023/01/19 03:00:39;;;;;;;3.30;3.00;;;2.90;99.90;;;;;;5033705;28;20439;-72
2023/01/19 03:03:21;;;;;;;8.20;2.73;;;2.90;99.90;;;;;;5033555;28;20402;-72
2023/01/19 03:05:58;;;;;;;5.80;3.40;;;2.90;99.90;;;;;;5033725;28;20437;-72
2023/01/19 03:08:40;;;;;;;4.27;2.60;;;2.90;99.90;;;;;;5033661;28;20488;-72
2023/01/19 03:11:10;;;;;;;1.80;1.70;;;2.90;99.90;;;;;;5033351;28;20465;-74
2023/01/19 03:13:45;;;;;;;6.73;2.50;;;2.90;99.90;;;;;;5033372;28;20803;-72
2023/01/19 03:16:17;;;;;;;6.47;3.50;;;2.90;99.90;;;;;;5033680;28;20483;-72
2023/01/19 03:18:49;;;;;;;3.53;3.27;;;3.00;99.90;;;;;;5032907;28;20473;-71
2023/01/19 03:21:19;;;;;;;2.60;1.70;;;3.00;99.90;;;;;;5036458;28;20444;-72
2023/01/19 03:23:47;;;;;;;3.10;2.07;;;3.00;99.90;;;;;;5036759;28;20966;-71
2023/01/19 03:26:18;;;;;;;4.37;2.50;;;3.00;99.90;;;;;;5033312;28;20552;-71
2023/01/19 03:28:48;;;;;;;2.70;2.37;;;3.00;99.90;;;;;;5032798;28;20547;-72
2023/01/19 03:31:19;;;;;;;14.90;2.80;;;3.10;99.90;;;;;;5033236;28;20805;-72
2023/01/19 03:33:50;;;;;;;5.13;3.03;;;3.10;99.90;;;;;;5033283;28;20425;-72
2023/01/19 03:36:23;;;;;;;5.03;3.07;;;3.00;99.90;;;;;;5036729;28;20527;-71
2023/01/19 03:38:51;;;;;;;2.37;2.17;;;3.10;99.90;;;;;;5035210;28;20564;-73
2023/01/19 03:41:21;;;;;;;3.63;2.70;;;3.00;99.90;;;;;;5032215;28;20480;-73
2023/01/19 03:43:51;;;;;;;4.17;3.77;;;3.00;99.90;;;;;;5032277;28;20459;-73
2023/01/19 03:46:20;;;;;;;5.30;4.33;;;3.00;99.90;;;;;;5032407;28;20419;-72
2023/01/19 03:48:48;;;;;;;5.37;3.40;;;3.00;99.90;;;;;;5032624;28;20914;-72
2023/01/19 03:51:18;;;;;;;4.97;3.43;;;3.00;99.90;;;;;;5032814;28;20543;-72
2023/01/19 03:53:45;;;;;;;2.30;2.10;;;3.00;99.90;;;;;;5032794;28;20571;-72
2023/01/19 03:56:18;;;;;;;4.27;2.77;;;3.10;99.90;;;;;;5032648;28;20544;-72
2023/01/19 03:58:45;;;;;;;2.13;1.80;;;3.10;99.90;;;;;;5032223;28;20461;-72
2023/01/19 04:01:14;;;;;;;5.53;2.10;;;3.00;99.90;;;;;;5032325;28;20457;-72
2023/01/19 04:03:41;;;;;;;6.20;2.50;;;3.00;99.90;;;;;;5031697;28;20424;-72
2023/01/19 04:06:09;;;;;;;3.20;2.83;;;3.10;99.90;;;;;;5032117;28;20520;-72
2023/01/19 04:08:37;;;;;;;4.07;2.37;;;3.10;99.90;;;;;;5031548;28;20443;-72
2023/01/19 04:11:04;;;;;;;6.40;3.20;;;3.20;99.90;;;;;;5031916;28;20456;-72
2023/01/19 04:13:31;;;;;;;9.43;3.50;;;3.20;99.90;;;;;;5031627;28;20476;-72
2023/01/19 04:16:00;;;;;;;21.57;2.93;;;3.20;99.90;;;;;;5031805;28;20549;-72
2023/01/19 04:18:28;;;;;;;5.10;4.60;;;3.20;99.90;;;;;;5031447;28;20541;-72
2023/01/19 04:20:55;;;;;;;4.90;2.67;;;3.20;99.90;;;;;;5031552;28;20492;-72
2023/01/19 04:23:22;;;;;;;2.70;2.23;;;3.10;99.90;;;;;;5031943;28;20541;-72
2023/01/19 04:25:50;;;;;;;10.83;2.83;;;3.10;99.90;;;;;;5031286;28;20551;-72
2023/01/19 04:28:16;;;;;;;5.23;3.43;;;3.00;99.90;;;;;;5031218;28;20534;-72
2023/01/19 04:30:44;;;;;;;2.87;2.10;;;3.00;99.90;;;;;;5031312;28;21025;-72
2023/01/19 04:33:11;;;;;;;1.93;1.80;;;3.00;99.90;;;;;;5031223;28;20532;-72
2023/01/19 04:35:39;;;;;;;3.10;2.20;;;3.00;99.90;;;;;;5030800;28;20509;-72
2023/01/19 04:38:06;;;;;;;3.40;3.20;;;3.00;99.90;;;;;;5031371;28;20891;-72
2023/01/19 04:40:33;;;;;;;3.70;2.23;;;3.00;99.90;;;;;;5031184;28;20452;-72
2023/01/19 04:43:00;;;;;;;6.23;4.73;;;3.00;99.90;;;;;;5031208;28;20427;-73
2023/01/19 04:45:27;;;;;;;3.67;3.33;;;2.80;99.90;;;;;;5031121;28;20536;-72
2023/01/19 04:47:54;;;;;;;3.97;3.67;;;2.70;99.90;;;;;;5031337;28;20548;-72
2023/01/19 04:50:21;;;;;;;5.97;3.33;;;2.40;99.90;;;;;;5031447;28;20480;-72
2023/01/19 04:52:49;;;;;;;4.90;3.33;;;2.30;99.90;;;;;;5031123;28;20480;-72
2023/01/19 04:55:17;;;;;;;4.00;2.07;;;2.20;99.90;;;;;;5035077;28;20459;-72
2023/01/19 04:57:44;;;;;;;3.03;2.57;;;2.20;99.90;;;;;;5032506;28;20842;-71
2023/01/19 05:00:12;;;;;;;5.43;1.63;;;2.20;99.90;;;;;;5031170;28;20480;-72
2023/01/19 05:02:41;;;;;;;5.20;3.03;;;2.10;99.90;;;;;;5030980;28;20824;-71
2023/01/19 05:05:09;;;;;;;2.60;1.97;;;2.10;99.90;;;;;;5030647;28;20442;-71
2023/01/19 05:07:36;;;;;;;4.30;2.50;;;2.00;99.90;;;;;;5030150;28;20479;-71
2023/01/19 05:10:07;;;;;;;2.90;2.10;;;2.00;99.90;;;;;;5031168;28;20471;-72
2023/01/19 05:12:35;;;;;;;4.40;1.80;;;2.00;99.90;;;;;;5030820;28;20983;-71
2023/01/19 05:15:02;;;;;;;5.23;3.70;;;2.00;99.90;;;;;;5031104;28;20604;-71
2023/01/19 05:17:29;;;;;;;3.23;2.37;;;2.00;99.90;;;;;;5031017;28;20503;-71
2023/01/19 05:19:58;;;;;;;4.10;2.20;;;2.00;99.90;;;;;;5030595;28;20974;-71
2023/01/19 05:22:26;;;;;;;3.43;2.23;;;1.90;99.90;;;;;;5031028;28;20897;-71
2023/01/19 05:24:53;;;;;;;2.60;2.40;;;1.90;99.90;;;;;;5030371;28;20442;-71
2023/01/19 05:27:21;;;;;;;3.63;2.43;;;1.90;99.90;;;;;;5031018;28;20813;-72
2023/01/19 05:29:48;;;;;;;3.20;2.40;;;1.90;99.90;;;;;;5031776;28;20547;-71
2023/01/19 05:32:15;;;;;;;9.23;2.83;;;1.90;99.90;;;;;;5031161;28;21030;-71
2023/01/19 05:34:42;;;;;;;2.10;1.97;;;1.80;99.90;;;;;;5030928;28;20980;-71
2023/01/19 05:37:08;;;;;;;2.40;2.20;;;1.80;99.90;;;;;;5029541;28;20531;-71
2023/01/19 05:39:35;;;;;;;5.57;2.60;;;1.90;99.90;;;;;;5031031;28;20532;-71
2023/01/19 05:42:02;;;;;;;5.53;2.87;;;1.90;99.90;;;;;;5034647;28;20524;-73
2023/01/19 05:44:31;;;;;;;3.40;2.47;;;1.90;99.90;;;;;;5034990;28;20611;-71
2023/01/19 05:46:58;;;;;;;7.50;3.30;;;1.80;99.90;;;;;;5034750;28;20484;-71
2023/01/19 05:49:25;;;;;;;7.03;2.87;;;1.90;99.90;;;;;;5034356;28;20459;-72
2023/01/19 05:51:52;;;;;;;10.67;3.80;;;1.90;99.90;;;;;;5034650;28;20449;-71
2023/01/19 05:54:19;;;;;;;4.17;3.00;;;1.90;99.90;;;;;;5034366;28;20523;-71
2023/01/19 05:56:46;;;;;;;4.30;3.30;;;1.90;99.90;;;;;;5034005;28;20646;-71
2023/01/19 05:59:14;;;;;;;5.17;3.10;;;1.90;99.90;;;;;;5034125;28;20526;-73
2023/01/19 06:01:43;;;;;;;4.50;3.40;;;1.80;99.90;;;;;;5033752;28;20473;-71
2023/01/19 06:04:10;;;;;;;5.60;3.87;;;1.90;99.90;;;;;;5015835;28;20435;-71
2023/01/19 06:06:37;;;;;;;3.37;2.80;;;1.80;99.90;;;;;;5034361;28;20518;-71
2023/01/19 06:09:04;;;;;;;3.30;1.90;;;1.80;99.90;;;;;;5034475;28;20465;-71
2023/01/19 06:11:31;;;;;;;3.73;3.43;;;1.80;99.90;;;;;;5034353;28;20420;-71
2023/01/19 06:13:57;;;;;;;6.00;2.73;;;1.70;99.90;;;;;;5036316;28;20476;-71
2023/01/19 06:16:24;;;;;;;1.20;1.10;;;1.80;99.90;;;;;;5035902;28;20875;-71
2023/01/19 06:18:53;;;;;;;6.37;3.97;;;1.80;99.90;;;;;;5033876;28;20547;-71
2023/01/19 06:21:20;;;;;;;3.17;1.97;;;1.80;99.90;;;;;;5033996;28;20821;-72
2023/01/19 06:23:47;;;;;;;7.63;4.53;;;1.80;99.90;;;;;;5033697;28;20451;-72
2023/01/19 06:26:14;;;;;;;3.27;2.67;;;1.80;99.90;;;;;;5032651;28;20449;-72
2023/01/19 06:28:41;;;;;;;4.13;3.77;;;1.90;99.90;;;;;;5032429;28;20465;-71
2023/01/19 06:31:08;;;;;;;9.50;5.53;;;1.90;99.90;;;;;;5033339;28;20829;-71
2023/01/19 06:33:35;;;;;;;3.80;3.37;;;1.90;99.90;;;;;;5033319;28;20445;-71
2023/01/19 06:36:05;;;;;;;8.23;2.07;;;1.80;99.90;;;;;;5032555;28;20424;-72
2023/01/19 06:38:33;;;;;;;5.27;4.20;;;1.90;99.90;;;;;;5033356;28;20530;-71
2023/01/19 06:41:01;;;;;;;4.50;3.07;;;1.80;99.90;;;;;;5033473;28;20480;-72
2023/01/19 06:43:30;;;;;;;2.73;2.53;;;1.70;99.90;;;;;;5034160;28;20534;-72
2023/01/19 06:45:59;;;;;;;9.13;2.47;;;1.70;99.90;;;;;;5033355;28;20439;-72
2023/01/19 06:48:26;;;;;;;7.33;3.33;;;1.60;99.90;;;;;;5033763;28;20473;-72
2023/01/19 06:50:53;;;;;;;9.20;3.47;;;1.70;99.90;;;;;;5033482;28;20454;-73
2023/01/19 06:53:22;;;;;;;9.30;4.10;;;1.70;99.90;;;;;;5034162;28;20475;-72
2023/01/19 06:55:49;;;;;;;6.77;3.57;;;1.80;99.90;;;;;;4998670;28;20479;-72
2023/01/19 06:58:18;;;;;;;3.33;2.90;;;1.80;99.90;;;;;;5033331;28;20563;-72
2023/01/19 07:00:45;;;;;;;7.23;2.67;;;1.80;99.90;;;;;;5033379;28;20947;-72
2023/01/19 07:03:19;;;;;;;2.70;2.27;;;1.90;99.90;;;;;;5033614;28;20445;-72
2023/01/19 07:05:48;;;;;;;6.10;3.80;;;1.90;99.90;;;;;;5033860;28;20436;-72
2023/01/19 07:08:15;;;;;;;4.37;2.53;;;1.80;99.90;;;;;;5033566;28;20454;-72
2023/01/19 07:10:44;;;;;;;5.20;3.20;;;1.80;99.90;;;;;;5034007;28;20867;-72
2023/01/19 07:13:11;;;;;;;4.07;2.70;;;1.80;99.90;;;;;;5034245;28;20503;-72
2023/01/19 07:15:38;;;;;;;4.37;2.37;;;1.80;99.90;;;;;;5034110;28;20448;-72
2023/01/19 07:18:06;;;;;;;3.67;3.10;;;1.80;99.90;;;;;;5033902;28;20439;-72
2023/01/19 07:20:34;;;;;;;3.47;3.00;;;1.80;99.90;;;;;;5033776;28;20451;-72
2023/01/19 07:23:01;;;;;;;1.30;1.20;;;1.80;99.90;;;;;;5034430;28;20459;-72
2023/01/19 07:25:28;;;;;;;3.70;2.03;;;1.90;99.90;;;;;;5035571;28;20993;-72
2023/01/19 07:27:58;;;;;;;4.13;3.20;;;1.80;99.90;;;;;;5034677;28;20523;-72
2023/01/19 07:30:25;;;;;;;4.40;3.03;;;1.80;99.90;;;;;;5034071;28;20530;-73
2023/01/19 07:32:55;;;;;;;5.50;3.60;;;1.80;99.90;;;;;;5038266;28;20524;-72
2023/01/19 07:35:22;;;;;;;4.93;2.00;;;1.80;99.90;;;;;;5033975;28;20445;-72
2023/01/19 07:37:50;;;;;;;3.57;2.83;;;2.00;99.90;;;;;;5014320;28;20461;-72
2023/01/19 07:40:17;;;;;;;6.17;3.50;;;2.00;99.90;;;;;;5033750;28;20793;-73
2023/01/19 07:42:48;;;;;;;10.00;6.30;;;2.00;99.90;;;;;;5033884;28;20821;-73
2023/01/19 07:45:16;;;;;;;3.50;3.30;;;2.10;99.90;;;;;;5033216;28;20426;-73
2023/01/19 07:47:44;;;;;;;4.80;3.13;;;2.10;99.90;;;;;;5033180;28;20912;-73
2023/01/19 07:50:12;;;;;;;4.10;2.63;;;2.10;99.90;;;;;;5032800;28;20484;-72
2023/01/19 07:52:39;;;;;;;3.23;2.90;;;2.10;99.90;;;;;;5032803;28;20446;-72
2023/01/19 07:55:07;;;;;;;2.30;1.83;;;2.10;99.90;;;;;;5032609;28;20452;-72
2023/01/19 07:57:35;;;;;;;4.90;3.93;;;2.20;99.90;;;;;;5032330;28;20481;-72
2023/01/19 08:00:03;;;;;;;5.60;3.67;;;2.20;99.90;;;;;;5032321;28;20509;-71
2023/01/19 08:02:32;;;;;;;6.47;4.77;;;2.20;99.90;;;;;;5031829;28;20480;-71
2023/01/19 08:04:59;;;;;;;5.77;2.87;;;2.20;99.90;;;;;;4997478;28;20476;-72
2023/01/19 08:07:27;;;;;;;6.47;3.63;;;2.30;99.90;;;;;;5031570;28;20480;-71
2023/01/19 08:09:54;;;;;;;8.43;5.13;;;2.30;99.90;;;;;;5032297;28;20449;-71
2023/01/19 08:12:20;;;;;;;9.33;5.30;;;2.40;99.90;;;;;;5033330;28;20447;-72
2023/01/19 08:14:49;;;;;;;7.10;4.70;;;2.30;99.90;;;;;;5032712;28;20455;-71
2023/01/19 08:17:16;;;;;;;6.00;3.63;;;2.30;99.90;;;;;;5033184;28;20603;-71
2023/01/19 08:19:44;;;;;;;6.07;4.17;;;2.40;99.90;;;;;;5033340;28;20540;-71
2023/01/19 08:22:12;;;;;;;4.30;3.30;;;2.30;99.90;;;;;;4997801;28;20576;-71
2023/01/19 08:24:39;;;;;;;5.67;5.17;;;2.40;99.90;;;;;;5032403;28;20503;-71
2023/01/19 08:27:08;;;;;;;6.53;4.80;;;2.40;99.90;;;;;;5031861;28;20961;-72
2023/01/19 08:29:35;;;;;;;9.33;6.60;;;2.40;99.90;;;;;;5032206;28;20750;-71
2023/01/19 08:32:02;;;;;;;5.23;2.73;;;2.50;99.90;;;;;;5032062;28;20870;-71
2023/01/19 08:34:30;;;;;;;10.67;5.73;;;2.50;99.90;;;;;;5031929;28;20455;-71
2023/01/19 08:36:59;;;;;;;9.10;4.07;;;2.50;99.90;;;;;;5031749;28;20431;-72
2023/01/19 08:39:26;;;;;;;19.43;5.67;;;2.60;99.90;;;;;;5032301;28;20551;-72
2023/01/19 08:41:53;;;;;;;8.00;6.00;;;2.60;99.90;;;;;;5032545;28;20488;-72
2023/01/19 08:44:23;;;;;;;9.40;6.10;;;2.60;99.90;;;;;;5032034;28;20987;-72
2023/01/19 08:46:50;;;;;;;6.20;4.00;;;2.60;99.90;;;;;;5032309;28;20539;-72
2023/01/19 08:49:17;;;;;;;3.73;3.00;;;2.60;99.90;;;;;;5031708;28;20888;-72
2023/01/19 08:51:46;;;;;;;9.23;4.00;;;2.60;99.90;;;;;;5035731;28;20447;-72
2023/01/19 08:54:15;;;;;;;6.43;4.30;;;2.60;99.90;;;;;;5031822;28;20818;-72
2023/01/19 08:56:42;;;;;;;3.40;3.10;;;2.70;99.90;;;;;;5031830;28;20456;-72
2023/01/19 08:59:09;;;;;;;6.07;5.33;;;2.70;99.90;;;;;;5031980;28;20465;-72
2023/01/19 09:01:37;;;;;;;8.20;5.97;;;2.70;99.90;;;;;;5031511;28;20975;-72
2023/01/19 09:04:04;;;;;;;5.73;5.07;;;2.60;99.90;;;;;;5031458;28;20967;-72
2023/01/19 09:06:31;;;;;;;8.20;4.70;;;2.70;99.90;;;;;;5031767;28;20469;-73
2023/01/19 09:08:58;;;;;;;5.73;4.30;;;2.70;99.90;;;;;;5031791;28;20556;-73
2023/01/19 09:11:27;;;;;;;7.20;4.43;;;2.80;99.90;;;;;;5032000;28;20511;-72
2023/01/19 09:13:54;;;;;;;6.80;4.37;;;2.70;99.90;;;;;;5031734;28;20449;-72
2023/01/19 09:16:21;;;;;;;7.73;4.53;;;2.70;99.90;;;;;;5036181;28;20477;-72
2023/01/19 09:18:47;;;;;;;4.93;3.30;;;2.70;99.90;;;;;;5035876;28;20468;-72
2023/01/19 09:21:15;;;;;;;10.20;5.83;;;2.70;99.90;;;;;;5035598;28;20872;-72
2023/01/19 09:23:42;;;;;;;16.13;8.77;;;2.70;99.90;;;;;;5035681;28;20495;-72
2023/01/19 09:26:09;;;;;;;10.77;6.10;;;2.60;99.90;;;;;;5035380;28;20527;-72
2023/01/19 09:28:38;;;;;;;24.57;5.50;;;2.70;99.90;;;;;;5035415;28;20910;-73
2023/01/19 09:31:07;;;;;;;14.90;5.87;;;2.60;99.90;;;;;;5035642;28;20455;-72
2023/01/19 09:33:36;;;;;;;8.70;4.63;;;2.70;99.90;;;;;;5035615;28;20573;-73
2023/01/19 09:36:03;;;;;;;4.93;4.23;;;2.80;99.90;;;;;;5035541;28;20432;-73
2023/01/19 09:38:31;;;;;;;15.13;7.80;;;2.80;99.90;;;;;;5035150;28;20977;-73
2023/01/19 09:40:59;;;;;;;11.57;7.43;;;2.80;99.90;;;;;;5035555;28;20886;-73
2023/01/19 09:43:35;;;;;;;13.40;8.97;;;2.90;99.90;;;;;;5035734;28;20450;-71
2023/01/19 09:46:10;;;;;;;11.10;7.97;;;2.90;99.90;;;;;;5034872;28;20807;-73
2023/01/19 09:48:45;;;;;;;11.27;7.80;;;2.90;99.90;;;;;;5035261;28;20482;-72
2023/01/19 09:51:16;;;;;;;6.80;5.13;;;3.00;99.90;;;;;;5035428;28;20429;-71
2023/01/19 09:54:04;;;;;;;19.97;10.30;;;3.00;99.90;;;;;;5034956;28;20459;-71
2023/01/19 09:56:32;;;;;;;14.10;8.27;;;3.10;99.90;;;;;;5034795;28;20996;-71
2023/01/19 09:59:00;;;;;;;8.93;5.87;;;3.10;99.90;;;;;;5035138;28;20943;-71
2023/01/19 10:01:47;;;;;;;10.40;7.10;;;3.20;99.90;;;;;;5035268;28;20480;-72
2023/01/19 10:04:34;;;;;;;12.93;8.47;;;3.20;99.90;;;;;;5035334;28;20429;-71
2023/01/19 10:07:13;;;;;;;14.03;6.97;;;3.20;99.90;;;;;;5035246;28;20439;-72
2023/01/19 10:09:56;;;;;;;10.47;6.87;;;3.20;99.90;;;;;;5038283;28;20431;-72
2023/01/19 10:12:35;;;;;;;17.47;7.57;;;3.30;99.90;;;;;;5035080;28;20479;-73
2023/01/19 10:15:13;;;;;;;11.70;9.07;;;3.30;99.90;;;;;;5035049;28;20464;-72
2023/01/19 10:17:49;;;;;;;13.33;8.20;;;3.40;99.90;;;;;;5035301;28;20517;-72
2023/01/19 10:20:24;;;;;;;15.90;6.13;;;3.40;99.90;;;;;;5034851;28;20494;-72
2023/01/19 10:22:52;;;;;;;3.33;3.10;;;3.40;99.90;;;;;;5034881;28;20538;-72
2023/01/19 10:25:23;;;;;;;16.57;10.23;;;3.40;99.90;;;;;;5034594;28;20463;-73
2023/01/19 10:27:50;;;;;;;13.87;8.53;;;3.30;99.90;;;;;;5034241;28;20482;-72
2023/01/19 10:30:22;;;;;;;11.93;7.97;;;3.40;99.90;;;;;;5034594;28;20531;-72
2023/01/19 10:32:51;;;;;;;9.47;6.97;;;3.30;99.90;;;;;;5034958;28;20508;-71
2023/01/19 10:35:23;;;;;;;11.00;5.87;;;3.30;99.90;;;;;;5034722;28;20423;-71
2023/01/19 10:37:50;;;;;;;13.13;9.23;;;3.30;99.90;;;;;;5034789;28;20841;-72
2023/01/19 10:40:28;;;;;;;6.73;5.37;;;3.20;99.90;;;;;;4999332;28;20416;-71
2023/01/19 10:42:57;;;;;;;6.87;5.27;;;3.30;99.90;;;;;;5034384;28;20439;-72
2023/01/19 10:45:26;;;;;;;38.13;9.40;;;3.30;99.90;;;;;;5034275;28;20428;-72
2023/01/19 10:47:57;;;;;;;9.47;6.93;;;3.20;99.90;;;;;;5034436;28;20476;-72
2023/01/19 10:50:27;;;;;;;13.10;5.87;;;3.20;99.90;;;;;;5034550;28;20726;-72
2023/01/19 10:52:56;;;;;;;4.80;4.10;;;3.20;99.90;;;;;;5035010;28;20508;-72
2023/01/19 10:55:26;;;;;;;6.80;5.30;;;3.20;99.90;;;;;;5034220;28;20420;-72
2023/01/19 10:57:53;;;;;;;15.03;7.87;;;3.30;99.90;;;;;;5033964;28;20831;-72
2023/01/19 11:00:36;;;;;;;17.60;8.13;;;3.30;99.90;;;;;;5034079;28;20433;-72
2023/01/19 11:03:05;;;;;;;12.30;7.80;;;3.30;99.90;;;;;;5033702;28;20435;-71
2023/01/19 11:05:33;;;;;;;11.07;6.43;;;3.30;99.90;;;;;;5033941;28;20423;-71
2023/01/19 11:08:01;;;;;;;13.77;7.20;;;3.30;99.90;;;;;;5034271;28;20885;-72
2023/01/19 11:10:30;;;;;;;12.30;6.50;;;3.30;99.90;;;;;;5033485;28;20489;-71
2023/01/19 11:13:00;;;;;;;11.93;7.63;;;3.20;99.90;;;;;;5034656;28;20451;-72
2023/01/19 11:15:31;;;;;;;11.23;5.70;;;3.20;99.90;;;;;;5034010;28;20420;-72
2023/01/19 11:17:59;;;;;;;12.20;6.80;;;3.30;99.90;;;;;;5033997;28;20591;-71
2023/01/19 11:20:31;;;;;;;14.90;7.03;;;3.50;99.90;;;;;;5033737;28;20869;-72
2023/01/19 11:23:06;;;;;;;10.83;5.20;;;3.60;99.90;;;;;;5033912;28;20820;-72
2023/01/19 11:25:35;;;;;;;28.70;7.57;;;3.80;99.90;;;;;;5036064;28;20423;-72
2023/01/19 11:28:04;;;;;;;12.93;7.63;;;3.80;99.90;;;;;;5035474;28;20469;-72
2023/01/19 11:30:32;;;;;;;4.50;3.80;;;3.80;99.90;;;;;;5033332;28;20527;-71
2023/01/19 11:32:59;;;;;;;14.23;8.60;;;3.90;99.90;;;;;;5033618;28;20419;-72
2023/01/19 11:35:37;;;;;;;8.07;4.17;;;3.90;99.90;;;;;;5033057;28;20538;-72
2023/01/19 11:38:19;;;;;;;10.30;5.70;;;4.10;99.90;;;;;;5032121;28;20443;-71
2023/01/19 11:40:53;;;;;;;8.67;6.33;;;4.10;99.90;;;;;;5032848;28;20424;-71
2023/01/19 11:43:22;;;;;;;9.20;5.10;;;4.10;99.90;;;;;;5032463;28;20468;-71
2023/01/19 11:45:49;;;;;;;10.37;7.07;;;4.20;99.90;;;;;;5014487;28;20415;-72
2023/01/19 11:48:23;;;;;;;12.77;7.87;;;4.20;99.90;;;;;;5032884;28;20945;-72
2023/01/19 11:50:52;;;;;;;8.47;4.87;;;4.20;99.90;;;;;;5033355;28;20535;-71
2023/01/19 11:53:24;;;;;;;7.97;4.80;;;4.20;99.90;;;;;;5032981;28;20486;-71
2023/01/19 11:55:56;;;;;;;13.47;8.17;;;4.20;99.90;;;;;;5032676;28;20907;-72
2023/01/19 11:58:26;;;;;;;16.53;9.50;;;4.20;99.90;;;;;;5032337;28;20485;-71
2023/01/19 12:00:56;;;;;;;14.10;7.60;;;4.30;99.90;;;;;;5032683;28;20427;-72
2023/01/19 12:03:29;;;;;;;13.70;7.47;;;4.20;99.90;;;;;;5032827;28;20547;-71
2023/01/19 12:06:01;;;;;;;16.80;7.70;;;4.20;99.90;;;;;;5032404;28;20487;-71
2023/01/19 12:08:34;;;;;;;17.37;7.87;;;4.10;99.90;;;;;;5032391;28;20440;-72
2023/01/19 12:11:03;;;;;;;18.80;8.97;;;4.10;99.90;;;;;;5032670;28;20919;-71
2023/01/19 12:13:32;;;;;;;9.47;4.57;;;4.10;99.90;;;;;;5032990;28;20559;-72
2023/01/19 12:16:04;;;;;;;17.20;7.50;;;4.20;99.90;;;;;;5032756;28;20502;-72
2023/01/19 12:18:36;;;;;;;9.30;5.50;;;4.20;99.90;;;;;;5032383;28;21011;-73
2023/01/19 12:21:05;;;;;;;20.90;10.80;;;4.10;99.90;;;;;;5032238;28;20989;-73
2023/01/19 12:23:43;;;;;;;12.90;7.43;;;4.00;99.90;;;;;;5032082;28;20856;-71
2023/01/19 12:26:35;;;;;;;16.10;4.97;;;4.10;99.90;;;;;;4997673;28;20422;-71
2023/01/19 12:29:10;;;;;;;8.23;5.70;;;4.00;99.90;;;;;;5033327;28;20788;-71
2023/01/19 12:31:41;;;;;;;9.37;7.40;;;4.00;99.90;;;;;;5032078;28;20498;-72
2023/01/19 12:34:30;;;;;;;12.80;6.73;;;3.90;99.90;;;;;;5032307;28;20400;-71
2023/01/19 12:37:02;;;;;;;18.40;9.47;;;4.10;99.90;;;;;;4998180;28;20449;-73
2023/01/19 12:39:30;;;;;;;8.27;5.00;;;4.10;99.90;;;;;;5032315;28;20437;-72
2023/01/19 12:42:18;;;;;;;9.73;4.83;;;4.00;99.90;;;;;;5032751;28;20514;-72
2023/01/19 12:44:47;;;;;;;9.17;6.57;;;4.00;99.90;;;;;;5031619;28;20971;-73
2023/01/19 12:47:23;;;;;;;11.03;6.53;;;4.00;99.90;;;;;;5032307;28;20407;-72
2023/01/19 12:49:55;;;;;;;13.37;9.30;;;4.00;99.90;;;;;;5031795;28;20458;-72
2023/01/19 12:52:33;;;;;;;9.43;6.63;;;4.00;99.90;;;;;;5031464;28;20425;-72
2023/01/19 12:55:21;;;;;;;8.50;5.20;;;4.00;99.90;;;;;;5031158;28;20440;-72
2023/01/19 12:58:00;;;;;;;13.70;10.03;;;4.00;99.90;;;;;;5031062;28;20484;-73
2023/01/19 13:00:33;;;;;;;12.50;8.37;;;4.00;99.90;;;;;;5030825;28;20462;-72
2023/01/19 13:03:04;;;;;;;8.50;4.80;;;4.00;99.90;;;;;;5031008;28;20476;-72
2023/01/19 13:05:58;;;;;;;17.33;8.90;;;4.00;99.90;;;;;;5030921;28;20428;-73
2023/01/19 13:08:30;;;;;;;10.23;6.70;;;4.00;99.90;;;;;;5031453;28;20474;-73
2023/01/19 13:11:20;;;;;;;21.70;10.77;;;4.10;99.90;;;;;;5031701;28;20408;-70
2023/01/19 13:14:29;;;;;;;19.60;7.07;;;4.20;99.90;;;;;;5030869;28;21111;-71
2023/01/19 13:17:05;;;;;;;9.60;5.87;;;4.30;99.90;;;;;;5024414;28;20510;-71
2023/01/19 13:19:43;;;;;;;13.23;8.20;;;4.40;99.90;;;;;;5039455;28;20440;-71
2023/01/19 13:22:48;;;;;;;14.00;10.87;;;4.50;99.90;;;;;;5031651;28;20429;-71